createdAt,value
2018-07-15T00:00:25.920Z,14.40
2018-07-15T00:05:10.384Z,14.30
2018-07-15T00:09:54.815Z,14.20
2018-07-15T00:14:39.962Z,14.20
2018-07-15T00:19:24.534Z,14.20
2018-07-15T00:24:08.905Z,14.20
2018-07-15T00:28:53.448Z,14.30
2018-07-15T00:33:37.913Z,14.40
2018-07-15T00:38:22.515Z,14.50
2018-07-15T00:43:07.332Z,14.50
2018-07-15T00:47:51.683Z,14.50
2018-07-15T00:52:36.212Z,14.40
2018-07-15T00:57:20.659Z,14.30
2018-07-15T01:02:05.185Z,14.30
2018-07-15T01:06:49.677Z,14.10
2018-07-15T01:11:34.267Z,13.90
2018-07-15T01:16:18.812Z,13.80
2018-07-15T01:21:03.205Z,13.70
2018-07-15T01:25:47.942Z,13.60
2018-07-15T01:30:32.482Z,13.50
2018-07-15T01:35:16.953Z,13.60
2018-07-15T01:40:01.327Z,13.50
2018-07-15T01:44:45.734Z,13.40
2018-07-15T01:49:30.218Z,13.20
2018-07-15T01:54:14.701Z,13.10
2018-07-15T01:58:59.184Z,13.00
2018-07-15T02:03:43.550Z,13.00
2018-07-15T02:08:27.948Z,12.90
2018-07-15T02:13:12.225Z,13.10
2018-07-15T02:17:56.666Z,13.30
2018-07-15T02:22:41.094Z,13.30
2018-07-15T02:27:26.510Z,13.10
2018-07-15T02:32:10.955Z,13.10
2018-07-15T02:36:55.421Z,13.00
2018-07-15T02:41:39.998Z,12.90
2018-07-15T02:46:24.364Z,12.90
2018-07-15T02:51:08.736Z,12.80
2018-07-15T02:55:53.074Z,12.80
2018-07-15T03:00:37.643Z,12.70
2018-07-15T03:05:22.182Z,12.80
2018-07-15T03:10:06.742Z,12.70
2018-07-15T03:14:51.315Z,12.70
2018-07-15T03:19:35.810Z,12.80
2018-07-15T03:24:20.542Z,13.00
2018-07-15T03:29:05.081Z,13.20
2018-07-15T03:33:49.608Z,13.20
2018-07-15T03:38:33.919Z,13.30
2018-07-15T03:43:18.274Z,13.20
2018-07-15T03:48:02.704Z,13.20
2018-07-15T03:52:47.222Z,13.20
2018-07-15T03:57:31.678Z,13.10
2018-07-15T04:02:16.091Z,13.10
2018-07-15T04:07:00.530Z,13.30
2018-07-15T04:11:45.056Z,13.90
2018-07-15T04:16:29.646Z,14.60
2018-07-15T04:21:14.054Z,14.80
2018-07-15T04:25:58.483Z,15.00
2018-07-15T04:30:43.084Z,15.20
2018-07-15T04:35:27.732Z,15.40
2018-07-15T04:40:12.128Z,15.60
2018-07-15T04:44:56.640Z,15.90
2018-07-15T04:49:41.190Z,16.10
2018-07-15T04:54:25.673Z,16.30
2018-07-15T04:59:10.072Z,16.30
2018-07-15T05:03:54.495Z,16.20
2018-07-15T05:08:38.978Z,16.10
2018-07-15T05:13:23.362Z,16.30
2018-07-15T05:18:07.855Z,16.60
2018-07-15T05:22:52.273Z,17.10
2018-07-15T05:27:36.737Z,17.60
2018-07-15T05:32:21.156Z,17.90
2018-07-15T05:37:05.559Z,18.30
2018-07-15T05:41:50.084Z,18.60
2018-07-15T05:46:34.552Z,18.90
2018-07-15T05:51:18.922Z,19.00
2018-07-15T05:56:03.420Z,19.20
2018-07-15T06:00:48.037Z,19.50
2018-07-15T06:05:32.565Z,19.60
2018-07-15T06:10:16.955Z,19.80
2018-07-15T06:15:01.474Z,20.00
2018-07-15T06:19:45.964Z,19.90
2018-07-15T06:24:30.463Z,20.10
2018-07-15T06:29:14.898Z,20.40
2018-07-15T06:33:59.394Z,20.50
2018-07-15T06:38:43.897Z,20.80
2018-07-15T06:43:28.339Z,21.00
2018-07-15T06:48:12.732Z,21.20
2018-07-15T06:52:57.234Z,21.50
2018-07-15T06:57:54.742Z,21.60
2018-07-15T07:02:41.514Z,21.60
2018-07-15T07:07:25.996Z,21.60
2018-07-15T07:12:10.580Z,21.80
2018-07-15T07:16:55.064Z,22.00
2018-07-15T07:21:39.414Z,22.10
2018-07-15T07:26:23.794Z,22.20
2018-07-15T07:31:08.158Z,22.10
2018-07-15T07:35:52.468Z,22.50
2018-07-15T07:40:37.010Z,22.90
2018-07-15T07:45:21.458Z,23.20
2018-07-15T07:50:06.060Z,23.50
2018-07-15T07:54:50.459Z,24.00
2018-07-15T07:59:34.894Z,24.30
2018-07-15T08:04:19.250Z,24.60
2018-07-15T08:09:04.858Z,25.00
2018-07-15T08:13:49.325Z,25.30
2018-07-15T08:18:33.905Z,25.50
2018-07-15T08:23:18.418Z,25.10
2018-07-15T08:28:02.847Z,25.30
2018-07-15T08:32:47.393Z,26.00
2018-07-15T08:37:31.822Z,25.60
2018-07-15T08:42:16.419Z,25.50
2018-07-15T08:47:00.869Z,25.30
2018-07-15T08:51:45.303Z,25.40
2018-07-15T08:56:29.762Z,25.90
2018-07-15T09:01:14.457Z,26.40
2018-07-15T09:05:58.956Z,26.10
2018-07-15T09:10:43.386Z,25.70
2018-07-15T09:15:27.895Z,25.70
2018-07-15T09:20:12.189Z,26.70
2018-07-15T09:24:56.575Z,27.20
2018-07-15T09:29:41.050Z,27.50
2018-07-15T09:34:25.474Z,27.90
2018-07-15T09:39:09.847Z,27.80
2018-07-15T09:43:54.646Z,28.10
2018-07-15T09:48:39.024Z,28.40
2018-07-15T09:53:23.772Z,28.60
2018-07-15T09:58:08.287Z,28.80
2018-07-15T10:02:52.798Z,29.30
2018-07-15T10:07:37.215Z,30.00
2018-07-15T10:12:21.846Z,29.70
2018-07-15T10:17:06.330Z,29.70
2018-07-15T10:21:50.853Z,29.60
2018-07-15T10:26:35.320Z,29.60
2018-07-15T10:31:19.653Z,29.60
2018-07-15T10:36:04.044Z,29.80
2018-07-15T10:40:48.513Z,30.40
2018-07-15T10:45:32.954Z,30.70
2018-07-15T10:50:17.350Z,30.80
2018-07-15T10:55:01.715Z,31.10
2018-07-15T10:59:46.116Z,31.10
2018-07-15T11:04:31.515Z,30.60
2018-07-15T11:09:16.025Z,30.50
2018-07-15T11:14:00.549Z,30.80
2018-07-15T11:18:44.905Z,30.50
2018-07-15T11:23:29.419Z,30.30
2018-07-15T11:28:13.849Z,30.10
2018-07-15T11:32:58.569Z,30.20
2018-07-15T11:37:43.262Z,31.00
2018-07-15T11:42:28.615Z,31.00
2018-07-15T11:47:13.652Z,31.00
2018-07-15T11:51:58.763Z,31.30
2018-07-15T11:56:46.676Z,31.20
2018-07-15T12:01:32.382Z,31.00
2018-07-15T12:06:16.859Z,31.30
2018-07-15T12:11:01.459Z,31.70
2018-07-15T12:15:46.050Z,32.00
2018-07-15T12:20:30.502Z,31.50
2018-07-15T12:25:15.015Z,31.30
2018-07-15T12:29:59.640Z,31.30
2018-07-15T12:34:44.328Z,31.70
2018-07-15T12:39:28.984Z,32.20
2018-07-15T12:44:13.440Z,31.80
2018-07-15T12:48:57.865Z,30.80
2018-07-15T12:53:42.440Z,30.70
2018-07-15T12:58:27.047Z,31.50
2018-07-15T13:03:11.448Z,31.50
2018-07-15T13:07:56.151Z,31.70
2018-07-15T13:12:41.370Z,31.80
2018-07-15T13:17:25.843Z,31.80
2018-07-15T13:22:10.316Z,31.90
2018-07-15T13:26:54.807Z,31.80
2018-07-15T13:31:39.440Z,31.90
2018-07-15T13:36:24.012Z,32.10
2018-07-15T13:41:09.177Z,31.70
2018-07-15T13:45:53.625Z,32.00
2018-07-15T13:50:38.115Z,31.70
2018-07-15T13:55:22.595Z,31.90
2018-07-15T14:00:08.064Z,31.80
2018-07-15T14:04:52.631Z,31.60
2018-07-15T14:09:37.308Z,32.00
2018-07-15T14:14:21.649Z,31.80
2018-07-15T14:19:06.103Z,31.70
2018-07-15T14:23:50.773Z,30.70
2018-07-15T14:28:35.228Z,30.60
2018-07-15T14:33:19.589Z,30.50
2018-07-15T14:38:04.092Z,29.90
2018-07-15T14:42:48.483Z,30.50
2018-07-15T14:47:32.951Z,31.00
2018-07-15T14:52:17.513Z,31.00
2018-07-15T14:57:01.980Z,30.20
2018-07-15T15:01:46.533Z,29.40
2018-07-15T15:06:30.940Z,29.40
2018-07-15T15:11:15.596Z,30.00
2018-07-15T15:16:00.052Z,30.30
2018-07-15T15:20:44.696Z,30.90
2018-07-15T15:25:30.479Z,31.20
2018-07-15T15:30:15.044Z,31.20
2018-07-15T15:34:59.822Z,30.60
2018-07-15T15:39:44.211Z,30.50
2018-07-15T15:44:28.749Z,30.80
2018-07-15T15:49:13.325Z,31.30
2018-07-15T15:53:57.941Z,31.60
2018-07-15T15:58:42.453Z,31.70
2018-07-15T16:03:26.890Z,32.10
2018-07-15T16:08:11.762Z,32.50
2018-07-15T16:12:56.223Z,32.40
2018-07-15T16:17:40.647Z,32.30
2018-07-15T16:22:25.116Z,32.60
2018-07-15T16:27:09.566Z,33.00
2018-07-15T16:31:54.174Z,32.70
2018-07-15T16:36:38.557Z,32.50
2018-07-15T16:41:22.988Z,32.40
2018-07-15T16:46:07.567Z,32.70
2018-07-15T16:50:52.022Z,32.60
2018-07-15T16:55:36.441Z,32.20
2018-07-15T17:00:20.787Z,32.70
2018-07-15T17:05:05.208Z,32.70
2018-07-15T17:09:49.750Z,32.80
2018-07-15T17:14:35.559Z,32.30
2018-07-15T17:19:20.941Z,31.80
2018-07-15T17:24:05.515Z,32.20
2018-07-15T17:28:50.115Z,32.00
2018-07-15T17:33:34.749Z,32.20
2018-07-15T17:38:19.212Z,31.40
2018-07-15T17:43:05.343Z,30.30
2018-07-15T17:47:50.120Z,29.20
2018-07-15T17:52:34.657Z,28.70
2018-07-15T17:57:19.095Z,27.20
2018-07-15T18:02:06.032Z,26.20
2018-07-15T18:06:51.371Z,25.50
2018-07-15T18:11:35.774Z,24.90
2018-07-15T18:16:20.269Z,24.40
2018-07-15T18:21:04.628Z,24.00
2018-07-15T18:25:49.105Z,23.70
2018-07-15T18:30:33.542Z,23.40
2018-07-15T18:35:18.081Z,23.10
2018-07-15T18:40:02.483Z,22.90
2018-07-15T18:44:47.166Z,22.50
2018-07-15T18:49:31.819Z,22.40
2018-07-15T18:54:16.254Z,22.10
2018-07-15T18:59:00.937Z,21.80
2018-07-15T19:03:45.448Z,21.60
2018-07-15T19:08:31.139Z,21.30
2018-07-15T19:13:15.599Z,21.00
2018-07-15T19:18:00.162Z,20.80
2018-07-15T19:22:44.574Z,20.50
2018-07-15T19:27:29.291Z,20.30
2018-07-15T19:32:13.926Z,20.20
2018-07-15T19:36:58.440Z,20.00
2018-07-15T19:41:42.886Z,19.70
2018-07-15T19:46:27.376Z,19.50
2018-07-15T19:51:11.924Z,19.30
2018-07-15T19:55:56.564Z,19.10
2018-07-15T20:00:42.485Z,19.10
2018-07-15T20:05:26.944Z,19.00
2018-07-15T20:10:11.593Z,18.90
2018-07-15T20:14:56.810Z,18.90
2018-07-15T20:19:42.863Z,18.70
2018-07-15T20:24:27.703Z,18.60
2018-07-15T20:29:12.744Z,18.50
2018-07-15T20:33:58.476Z,18.20
2018-07-15T20:38:43.176Z,18.00
2018-07-15T20:43:28.058Z,17.80
2018-07-15T20:48:12.409Z,17.60
2018-07-15T20:52:58.878Z,17.50
2018-07-15T20:57:43.250Z,17.60
2018-07-15T21:02:27.669Z,17.50
2018-07-15T21:07:12.038Z,17.40
2018-07-15T21:11:56.517Z,17.30
2018-07-15T21:16:40.939Z,17.20
2018-07-15T21:21:25.259Z,17.10
2018-07-15T21:26:09.605Z,17.00
2018-07-15T21:31:00.531Z,16.90
2018-07-15T21:35:45.050Z,16.90
2018-07-15T21:40:29.561Z,16.80
2018-07-15T21:45:13.989Z,16.60
2018-07-15T21:49:58.622Z,16.50
2018-07-15T21:54:43.094Z,16.30
2018-07-15T21:59:27.471Z,16.30
2018-07-15T22:04:12.227Z,16.10
2018-07-15T22:09:07.716Z,16.00
2018-07-15T22:13:52.202Z,15.70
2018-07-15T22:18:36.625Z,15.60
2018-07-15T22:23:21.091Z,15.50
2018-07-15T22:28:05.640Z,15.40
2018-07-15T22:32:50.159Z,15.40
2018-07-15T22:37:34.719Z,15.20
2018-07-15T22:42:19.195Z,15.20
2018-07-15T22:47:03.706Z,15.10
2018-07-15T22:51:58.580Z,14.90
2018-07-15T22:56:44.079Z,15.10
2018-07-15T23:01:28.500Z,15.00
2018-07-15T23:06:19.131Z,14.90
2018-07-15T23:11:03.509Z,14.70
2018-07-15T23:15:48.132Z,14.60
2018-07-15T23:20:34.351Z,14.60
2018-07-15T23:25:18.950Z,14.60
2018-07-15T23:30:03.264Z,14.60
2018-07-15T23:34:47.591Z,15.10
2018-07-15T23:39:31.926Z,15.40
2018-07-15T23:44:16.261Z,15.50
2018-07-15T23:49:00.655Z,15.40
2018-07-15T23:53:45.130Z,15.70
2018-07-15T23:58:29.461Z,16.00
